createdAt,value
2023-01-27T00:00:01.714Z,97979.22
2023-01-27T00:02:03.008Z,97973.38
2023-01-27T00:04:04.864Z,97980.25
2023-01-27T00:06:06.518Z,97976.88
2023-01-27T00:08:07.939Z,97970.97
2023-01-27T00:10:09.241Z,97968.50
2023-01-27T00:12:29.179Z,97967.69
2023-01-27T00:14:30.546Z,97966.06
2023-01-27T00:16:31.854Z,97968.63
2023-01-27T00:18:33.182Z,97963.53
2023-01-27T00:20:52.938Z,97960.19
2023-01-27T00:23:12.895Z,97956.00
2023-01-27T00:25:14.252Z,97949.19
2023-01-27T00:27:15.593Z,97950.09
2023-01-27T00:29:16.896Z,97967.13
2023-01-27T00:31:36.996Z,97965.44
2023-01-27T00:33:38.378Z,97962.06
2023-01-27T00:35:39.677Z,97955.28
2023-01-27T00:37:41.011Z,97956.97
2023-01-27T00:39:42.294Z,97960.31
2023-01-27T00:41:43.624Z,97959.28
2023-01-27T00:43:44.918Z,97958.34
2023-01-27T00:45:49.376Z,97956.63
2023-01-27T00:47:50.870Z,97959.09
2023-01-27T00:49:53.143Z,97958.19
2023-01-27T00:51:55.113Z,97952.16
2023-01-27T00:53:56.587Z,97955.50
2023-01-27T00:56:00.895Z,97957.09
2023-01-27T00:58:02.211Z,97964.69
2023-01-27T01:00:03.665Z,97962.97
2023-01-27T01:02:05.070Z,97956.13
2023-01-27T01:04:06.490Z,97963.72
2023-01-27T01:06:07.939Z,97968.75
2023-01-27T01:08:09.249Z,97968.75
2023-01-27T01:10:10.786Z,97970.50
2023-01-27T01:12:12.308Z,97973.91
2023-01-27T01:14:13.649Z,97975.47
2023-01-27T01:16:15.006Z,97973.00
2023-01-27T01:18:16.338Z,97979.94
2023-01-27T01:20:17.673Z,97982.66
2023-01-27T01:22:19.009Z,97980.22
2023-01-27T01:24:20.417Z,97986.28
2023-01-27T01:26:21.776Z,97992.31
2023-01-27T01:28:23.118Z,97984.66
2023-01-27T01:30:26.369Z,97989.00
2023-01-27T01:32:27.726Z,97991.59
2023-01-27T01:34:29.030Z,97986.53
2023-01-27T01:36:30.307Z,97986.53
2023-01-27T01:38:31.633Z,97986.47
2023-01-27T01:40:32.925Z,97984.81
2023-01-27T01:42:34.259Z,97987.38
2023-01-27T01:44:37.073Z,97988.22
2023-01-27T01:46:38.400Z,97974.63
2023-01-27T01:48:40.969Z,97978.84
2023-01-27T01:50:42.271Z,97978.06
2023-01-27T01:52:43.614Z,97982.28
2023-01-27T01:54:44.951Z,97980.53
2023-01-27T01:56:46.290Z,97988.13
2023-01-27T01:58:47.634Z,97985.50
2023-01-27T02:00:49.096Z,97976.88
2023-01-27T02:02:50.412Z,97980.06
2023-01-27T02:04:51.746Z,97979.97
2023-01-27T02:06:53.043Z,97980.69
2023-01-27T02:08:54.342Z,97983.16
2023-01-27T02:10:55.668Z,97985.59
2023-01-27T02:12:56.968Z,97986.41
2023-01-27T02:14:58.266Z,97987.34
2023-01-27T02:16:59.602Z,97983.97
2023-01-27T02:19:00.913Z,97987.41
2023-01-27T02:21:02.266Z,97987.41
2023-01-27T02:23:03.731Z,97883.25
2023-01-27T02:25:05.041Z,97989.97
2023-01-27T02:27:06.331Z,97980.66
2023-01-27T02:29:07.689Z,97987.47
2023-01-27T02:31:09.088Z,97987.56
2023-01-27T02:33:10.982Z,97986.69
2023-01-27T02:35:12.621Z,97987.69
2023-01-27T02:37:14.137Z,97981.84
2023-01-27T02:39:15.452Z,97991.28
2023-01-27T02:41:16.801Z,97990.56
2023-01-27T02:43:18.183Z,97990.75
2023-01-27T02:45:19.490Z,97990.03
2023-01-27T02:47:20.866Z,97996.88
2023-01-27T02:49:22.166Z,97994.34
2023-01-27T02:51:23.506Z,98002.94
2023-01-27T02:53:24.881Z,97997.88
2023-01-27T02:55:26.706Z,97999.53
2023-01-27T02:57:28.016Z,97996.06
2023-01-27T02:59:29.351Z,97994.38
2023-01-27T03:01:32.626Z,97992.72
2023-01-27T03:03:34.110Z,97991.03
2023-01-27T03:05:35.442Z,97993.56
2023-01-27T03:07:36.766Z,97993.56
2023-01-27T03:09:38.059Z,97993.56
2023-01-27T03:11:57.796Z,97988.38
2023-01-27T03:13:59.101Z,97997.59
2023-01-27T03:16:19.061Z,97998.41
2023-01-27T03:18:21.293Z,97995.75
2023-01-27T03:20:22.629Z,98001.56
2023-01-27T03:22:24.016Z,97994.59
2023-01-27T03:24:25.341Z,97999.59
2023-01-27T03:26:26.704Z,97993.44
2023-01-27T03:28:28.037Z,97995.06
2023-01-27T03:30:29.347Z,97991.59
2023-01-27T03:32:30.710Z,97999.28
2023-01-27T03:34:32.005Z,97999.22
2023-01-27T03:36:52.076Z,98005.22
2023-01-27T03:39:11.980Z,97995.03
2023-01-27T03:41:31.885Z,97999.03
2023-01-27T03:43:51.779Z,97998.00
2023-01-27T03:46:11.636Z,98000.22
2023-01-27T03:48:13.007Z,97998.09
2023-01-27T03:50:19.249Z,97995.00
2023-01-27T03:52:20.616Z,97994.84
2023-01-27T03:54:21.953Z,97992.91
2023-01-27T03:56:23.288Z,97996.50
2023-01-27T03:58:24.583Z,97992.34
2023-01-27T04:00:25.914Z,97993.25
2023-01-27T04:02:45.783Z,97987.72
2023-01-27T04:05:05.872Z,97986.16
2023-01-27T04:07:07.194Z,97987.06
2023-01-27T04:09:08.570Z,97990.47
2023-01-27T04:11:30.860Z,97989.69
2023-01-27T04:13:33.113Z,97986.34
2023-01-27T04:15:34.509Z,97985.44
2023-01-27T04:17:38.994Z,97984.63
2023-01-27T04:19:40.378Z,97996.50
2023-01-27T04:21:41.687Z,97989.63
2023-01-27T04:23:43.018Z,97992.88
2023-01-27T04:25:44.310Z,97994.47
2023-01-27T04:27:45.633Z,97755.03
2023-01-27T04:29:47.015Z,97997.56
2023-01-27T04:31:48.581Z,98001.59
2023-01-27T04:33:49.899Z,97994.59
2023-01-27T04:35:51.237Z,97998.69
2023-01-27T04:37:52.587Z,97995.09
2023-01-27T04:39:53.936Z,98003.44
2023-01-27T04:41:55.268Z,98005.97
2023-01-27T04:43:56.584Z,98008.44
2023-01-27T04:45:57.996Z,98003.28
2023-01-27T04:47:59.301Z,97998.94
2023-01-27T04:50:00.662Z,97998.06
2023-01-27T04:52:02.233Z,98002.28
2023-01-27T04:54:06.734Z,97996.31
2023-01-27T04:56:08.088Z,97992.97
2023-01-27T04:58:09.442Z,97997.25
2023-01-27T05:00:10.738Z,97992.97
2023-01-27T05:02:12.110Z,97996.50
2023-01-27T05:04:13.485Z,97995.75
2023-01-27T05:06:14.848Z,98001.03
2023-01-27T05:08:16.275Z,98003.78
2023-01-27T05:10:17.644Z,98008.28
2023-01-27T05:12:18.943Z,98010.16
2023-01-27T05:14:21.338Z,98011.22
2023-01-27T05:16:23.656Z,98006.31
2023-01-27T05:18:25.071Z,98017.47
2023-01-27T05:20:26.401Z,98024.38
2023-01-27T05:22:27.754Z,98025.31
2023-01-27T05:24:29.235Z,98029.66
2023-01-27T05:26:30.554Z,98032.25
2023-01-27T05:28:31.871Z,98030.56
2023-01-27T05:30:33.215Z,98022.16
2023-01-27T05:32:34.647Z,98032.31
2023-01-27T05:34:36.370Z,98029.84
2023-01-27T05:36:38.043Z,98030.66
2023-01-27T05:38:39.461Z,98031.53
2023-01-27T05:40:40.750Z,98035.81
2023-01-27T05:42:42.057Z,98038.31
2023-01-27T05:44:43.387Z,98032.25
2023-01-27T05:46:44.886Z,98033.84
2023-01-27T05:48:46.282Z,98041.41
2023-01-27T05:50:47.605Z,98037.03
2023-01-27T05:52:49.064Z,98043.56
2023-01-27T05:54:50.494Z,98046.81
2023-01-27T05:56:51.827Z,98036.47
2023-01-27T05:58:53.161Z,98041.41
2023-01-27T06:00:54.561Z,98045.44
2023-01-27T06:02:56.165Z,98041.91
2023-01-27T06:04:57.546Z,98041.84
2023-01-27T06:06:59.034Z,98046.03
2023-01-27T06:09:00.327Z,98044.25
2023-01-27T06:11:02.255Z,98051.88
2023-01-27T06:13:03.559Z,98046.00
2023-01-27T06:15:04.859Z,98049.31
2023-01-27T06:17:06.199Z,98058.59
2023-01-27T06:19:07.502Z,98058.63
2023-01-27T06:21:08.817Z,98062.00
2023-01-27T06:23:10.117Z,98056.13
2023-01-27T06:25:12.034Z,98063.78
2023-01-27T06:27:13.534Z,98061.38
2023-01-27T06:29:14.835Z,98067.44
2023-01-27T06:31:16.279Z,98067.56
2023-01-27T06:33:17.766Z,98070.19
2023-01-27T06:35:19.170Z,98072.84
2023-01-27T06:37:20.527Z,98073.78
2023-01-27T06:39:21.857Z,98075.56
2023-01-27T06:41:23.300Z,98069.63
2023-01-27T06:43:24.584Z,98073.97
2023-01-27T06:45:26.883Z,98074.03
2023-01-27T06:47:28.181Z,98068.19
2023-01-27T06:49:29.764Z,98082.75
2023-01-27T06:51:31.060Z,98082.81
2023-01-27T06:53:32.665Z,98037.47
2023-01-27T06:55:34.176Z,98076.16
2023-01-27T06:57:35.515Z,98078.78
2023-01-27T06:59:36.837Z,98081.38
2023-01-27T07:01:38.178Z,98085.63
2023-01-27T07:03:39.569Z,98095.03
2023-01-27T07:05:40.945Z,98093.34
2023-01-27T07:07:42.279Z,98101.00
2023-01-27T07:09:52.391Z,98094.13
2023-01-27T07:11:54.318Z,98094.88
2023-01-27T07:13:55.640Z,98093.91
2023-01-27T07:15:56.979Z,98092.13
2023-01-27T07:17:58.333Z,98097.09
2023-01-27T07:19:59.642Z,98096.91
2023-01-27T07:22:01.157Z,98096.78
2023-01-27T07:24:02.508Z,98103.50
2023-01-27T07:26:07.800Z,98110.13
2023-01-27T07:28:17.076Z,98104.13
2023-01-27T07:30:18.430Z,98106.59
2023-01-27T07:32:19.790Z,98101.44
2023-01-27T07:34:21.087Z,98111.59
2023-01-27T07:36:22.431Z,98110.66
2023-01-27T07:38:23.860Z,98109.81
2023-01-27T07:40:25.209Z,98096.94
2023-01-27T07:42:26.501Z,98099.53
2023-01-27T07:44:27.797Z,98097.91
2023-01-27T07:46:29.148Z,98103.13
2023-01-27T07:48:30.490Z,98107.41
2023-01-27T07:50:31.800Z,98110.06
2023-01-27T07:52:33.171Z,98105.94
2023-01-27T07:54:34.483Z,98121.38
2023-01-27T07:56:36.493Z,98118.06
2023-01-27T07:58:37.796Z,98121.53
2023-01-27T08:00:39.435Z,98116.53
2023-01-27T08:02:40.791Z,98120.00
2023-01-27T08:04:52.468Z,98121.78
2023-01-27T08:06:54.742Z,98127.81
2023-01-27T08:08:56.088Z,98124.44
2023-01-27T08:10:57.423Z,98124.56
2023-01-27T08:12:58.783Z,98128.91
2023-01-27T08:15:00.142Z,98134.06
2023-01-27T08:17:02.214Z,98135.78
2023-01-27T08:19:03.527Z,98134.16
2023-01-27T08:21:04.860Z,98129.09
2023-01-27T08:23:06.185Z,98129.16
2023-01-27T08:25:07.509Z,98130.81
2023-01-27T08:27:09.634Z,98137.63
2023-01-27T08:29:10.945Z,98145.22
2023-01-27T08:31:12.356Z,98140.06
2023-01-27T08:33:13.698Z,98136.63
2023-01-27T08:35:15.010Z,98122.91
2023-01-27T08:37:16.343Z,98127.84
2023-01-27T08:39:17.637Z,98132.81
2023-01-27T08:41:18.937Z,98122.47
2023-01-27T08:43:20.943Z,98126.63
2023-01-27T08:45:22.246Z,98137.53
2023-01-27T08:47:23.555Z,98141.69
2023-01-27T08:49:24.849Z,98133.06
2023-01-27T08:51:26.211Z,98133.78
2023-01-27T08:53:27.574Z,98133.78
2023-01-27T08:55:29.105Z,98139.69
2023-01-27T08:57:32.456Z,98140.53
2023-01-27T08:59:33.908Z,98142.19
2023-01-27T09:01:35.262Z,98148.13
2023-01-27T09:03:36.641Z,98148.13
2023-01-27T09:05:37.943Z,98152.44
2023-01-27T09:07:39.233Z,98146.50
2023-01-27T09:09:40.604Z,98157.63
2023-01-27T09:11:42.021Z,98160.31
2023-01-27T09:13:43.323Z,98163.78
2023-01-27T09:15:44.662Z,98167.31
2023-01-27T09:17:47.185Z,98169.97
2023-01-27T09:19:48.497Z,98174.28
2023-01-27T09:21:49.818Z,98175.25
2023-01-27T09:23:51.178Z,98180.41
2023-01-27T09:25:52.487Z,98177.09
2023-01-27T09:27:53.777Z,98181.41
2023-01-27T09:29:55.071Z,98177.22
2023-01-27T09:31:56.434Z,98182.38
2023-01-27T09:33:57.794Z,98179.09
2023-01-27T09:35:59.198Z,98185.94
2023-01-27T09:38:00.636Z,98182.59
2023-01-27T09:40:01.992Z,98186.03
2023-01-27T09:42:03.310Z,98184.44
2023-01-27T09:44:04.655Z,98171.69
2023-01-27T09:46:06.094Z,98175.09
2023-01-27T09:48:07.443Z,98185.28
2023-01-27T09:50:08.799Z,98191.19
2023-01-27T09:52:10.138Z,98190.31
2023-01-27T09:54:11.472Z,98188.56
2023-01-27T09:56:12.834Z,98186.75
2023-01-27T09:58:14.131Z,98186.66
2023-01-27T10:00:18.449Z,98183.13
2023-01-27T10:02:19.757Z,98179.53
2023-01-27T10:04:21.136Z,98173.50
2023-01-27T10:06:22.536Z,98173.34
2023-01-27T10:08:23.834Z,98172.44
2023-01-27T10:10:25.175Z,98160.38
2023-01-27T10:12:26.467Z,98158.59
2023-01-27T10:14:27.943Z,98158.59
2023-01-27T10:16:29.279Z,98161.06
2023-01-27T10:18:30.597Z,98161.00
2023-01-27T10:20:31.958Z,98161.00
2023-01-27T10:22:33.297Z,98161.88
2023-01-27T10:24:34.596Z,98159.34
2023-01-27T10:26:36.195Z,98157.66
2023-01-27T10:28:37.595Z,98169.56
2023-01-27T10:30:39.017Z,98164.56
2023-01-27T10:32:40.326Z,98159.44
2023-01-27T10:34:41.618Z,98162.06
2023-01-27T10:36:42.954Z,98159.63
2023-01-27T10:38:44.278Z,98160.56
2023-01-27T10:40:45.631Z,98162.38
2023-01-27T10:42:46.945Z,98160.72
2023-01-27T10:44:48.272Z,98164.19
2023-01-27T10:46:49.774Z,98165.09
2023-01-27T10:48:51.127Z,98168.59
2023-01-27T10:50:52.422Z,98166.94
2023-01-27T10:52:53.754Z,98160.16
2023-01-27T10:54:55.074Z,98161.94
2023-01-27T10:56:56.410Z,98156.03
2023-01-27T10:58:57.729Z,98159.53
2023-01-27T11:01:20.294Z,98163.00
2023-01-27T11:03:21.731Z,98180.00
2023-01-27T11:05:23.020Z,98167.28
2023-01-27T11:07:24.352Z,98168.19
2023-01-27T11:09:25.727Z,98173.34
2023-01-27T11:11:45.265Z,98173.34
2023-01-27T11:13:46.617Z,98174.13
2023-01-27T11:15:47.896Z,98164.75
2023-01-27T11:17:49.239Z,98161.34
2023-01-27T11:19:50.540Z,98163.78
2023-01-27T11:22:06.262Z,98156.88
2023-01-27T11:24:08.776Z,98169.50
2023-01-27T11:26:10.063Z,98166.84
2023-01-27T11:28:11.386Z,98156.53
2023-01-27T11:30:13.137Z,98166.59
2023-01-27T11:32:14.694Z,98156.38
2023-01-27T11:34:16.042Z,98158.88
2023-01-27T11:36:17.335Z,98153.66
2023-01-27T11:38:18.655Z,98150.25
2023-01-27T11:40:19.997Z,98157.81
2023-01-27T11:42:21.602Z,98147.59
2023-01-27T11:44:22.908Z,98150.94
2023-01-27T11:46:24.275Z,98157.69
2023-01-27T11:48:25.643Z,98162.84
2023-01-27T11:50:27.359Z,98154.34
2023-01-27T11:52:29.145Z,98150.09
2023-01-27T11:54:30.536Z,98147.47
2023-01-27T11:56:31.880Z,98148.44
2023-01-27T11:58:33.211Z,98148.50
2023-01-27T12:00:34.557Z,98153.75
2023-01-27T12:02:35.905Z,98144.44
2023-01-27T12:04:37.311Z,98145.34
2023-01-27T12:06:38.690Z,98152.28
2023-01-27T12:08:40.133Z,98146.41
2023-01-27T12:10:44.448Z,98148.22
2023-01-27T12:12:45.739Z,98148.28
2023-01-27T12:14:47.035Z,98148.38
2023-01-27T12:16:48.368Z,98144.97
2023-01-27T12:18:49.833Z,98151.81
2023-01-27T12:20:51.608Z,98151.91
2023-01-27T12:22:52.989Z,98145.16
2023-01-27T12:24:54.314Z,98153.69
2023-01-27T12:26:55.766Z,98152.03
2023-01-27T12:28:57.087Z,98145.22
2023-01-27T12:30:58.411Z,98141.00
2023-01-27T12:32:59.731Z,98138.47
2023-01-27T12:35:01.066Z,98134.22
2023-01-27T12:37:02.353Z,98133.34
2023-01-27T12:39:03.658Z,98130.75
2023-01-27T12:41:05.046Z,98130.72
2023-01-27T12:43:06.343Z,98136.56
2023-01-27T12:45:07.662Z,98143.28
2023-01-27T12:47:08.947Z,98144.88
2023-01-27T12:49:10.249Z,98140.56
2023-01-27T12:51:11.736Z,98142.16
2023-01-27T12:53:13.029Z,98140.31
2023-01-27T12:55:14.317Z,98130.88
2023-01-27T12:57:17.421Z,98129.09
2023-01-27T12:59:18.829Z,98135.84
2023-01-27T13:01:20.177Z,98139.19
2023-01-27T13:03:21.722Z,98132.41
2023-01-27T13:05:23.026Z,98126.38
2023-01-27T13:07:24.374Z,98133.97
2023-01-27T13:09:26.648Z,98133.97
2023-01-27T13:11:27.951Z,98130.56
2023-01-27T13:13:29.334Z,98130.50
2023-01-27T13:15:34.052Z,98132.22
2023-01-27T13:17:35.363Z,98124.59
2023-01-27T13:19:40.965Z,98128.00
2023-01-27T13:21:42.320Z,98134.09
2023-01-27T13:23:46.737Z,98125.66
2023-01-27T13:25:48.279Z,98133.41
2023-01-27T13:27:49.621Z,98133.44
2023-01-27T13:29:50.965Z,98140.59
2023-01-27T13:31:52.347Z,98134.63
2023-01-27T13:33:53.663Z,98135.78
2023-01-27T13:35:54.982Z,98141.53
2023-01-27T13:37:56.270Z,98142.25
2023-01-27T13:39:57.624Z,98134.53
2023-01-27T13:41:58.926Z,98142.22
2023-01-27T13:44:00.328Z,98149.09
2023-01-27T13:46:01.626Z,98150.91
2023-01-27T13:48:03.065Z,98146.78
2023-01-27T13:50:04.706Z,98152.34
2023-01-27T13:52:06.053Z,98145.19
2023-01-27T13:54:07.406Z,98147.38
2023-01-27T13:56:08.774Z,98140.28
2023-01-27T13:58:12.748Z,98146.88
2023-01-27T14:00:14.462Z,98150.03
2023-01-27T14:02:15.872Z,98140.19
2023-01-27T14:04:17.298Z,98150.94
2023-01-27T14:06:18.602Z,98149.97
2023-01-27T14:08:19.903Z,98147.44
2023-01-27T14:10:21.233Z,98148.88
2023-01-27T14:12:22.530Z,98143.84
2023-01-27T14:14:23.824Z,98145.56
2023-01-27T14:16:25.108Z,98147.97
2023-01-27T14:18:26.541Z,98144.84
2023-01-27T14:20:27.873Z,98146.69
2023-01-27T14:22:29.342Z,98144.47
2023-01-27T14:24:30.911Z,98147.50
2023-01-27T14:26:32.273Z,98153.34
2023-01-27T14:28:36.331Z,98156.78
2023-01-27T14:30:37.691Z,98153.47
2023-01-27T14:32:39.013Z,98157.34
2023-01-27T14:34:43.298Z,98144.91
2023-01-27T14:36:44.866Z,98157.16
2023-01-27T14:38:48.233Z,98168.66
2023-01-27T14:40:49.638Z,98165.47
2023-01-27T14:42:50.970Z,98167.22
2023-01-27T14:45:07.026Z,98167.16
2023-01-27T14:47:08.343Z,98172.69
2023-01-27T14:49:09.672Z,98177.19
2023-01-27T14:51:12.084Z,98173.91
2023-01-27T14:53:13.531Z,98187.66
2023-01-27T14:55:15.811Z,98180.06
2023-01-27T14:57:23.054Z,98179.28
2023-01-27T14:59:24.343Z,98181.91
2023-01-27T15:01:25.673Z,98193.00
2023-01-27T15:03:27.971Z,98187.91
2023-01-27T15:05:29.262Z,98194.72
2023-01-27T15:07:30.554Z,98196.47
2023-01-27T15:09:32.483Z,98196.41
2023-01-27T15:11:37.351Z,98190.41
2023-01-27T15:13:38.785Z,98195.03
2023-01-27T15:15:42.034Z,98187.13
2023-01-27T15:17:46.172Z,98188.25
2023-01-27T15:19:47.479Z,98184.84
2023-01-27T15:21:48.819Z,98196.59
2023-01-27T15:23:50.183Z,98189.44
2023-01-27T15:25:51.521Z,98190.19
2023-01-27T15:27:52.824Z,98194.56
2023-01-27T15:29:54.190Z,98199.22
2023-01-27T15:32:01.302Z,98196.75
2023-01-27T15:34:02.647Z,98200.25
2023-01-27T15:36:03.938Z,98195.94
2023-01-27T15:38:05.291Z,98205.38
2023-01-27T15:40:06.581Z,98204.66
2023-01-27T15:42:09.819Z,98198.75
2023-01-27T15:44:13.771Z,98203.13
2023-01-27T15:46:15.068Z,98207.41
2023-01-27T15:48:16.366Z,98207.47
2023-01-27T15:50:17.658Z,98209.31
2023-01-27T15:52:18.976Z,98209.34
2023-01-27T15:54:20.288Z,98202.69
2023-01-27T15:56:21.622Z,98201.91
2023-01-27T15:58:22.972Z,98209.69
2023-01-27T16:00:24.299Z,98207.25
2023-01-27T16:02:25.689Z,98214.16
2023-01-27T16:04:27.052Z,98216.81
2023-01-27T16:06:28.367Z,98209.22
2023-01-27T16:08:29.703Z,98215.25
2023-01-27T16:10:31.022Z,98217.00
2023-01-27T16:12:32.410Z,98215.38
2023-01-27T16:14:34.053Z,98223.06
2023-01-27T16:16:35.521Z,98227.38
2023-01-27T16:18:39.531Z,98223.97
2023-01-27T16:20:40.874Z,98229.97
2023-01-27T16:22:42.175Z,98224.06
2023-01-27T16:24:43.470Z,98226.66
2023-01-27T16:26:47.546Z,98224.09
2023-01-27T16:28:48.842Z,98230.91
2023-01-27T16:30:50.169Z,98231.75
2023-01-27T16:32:54.559Z,98230.91
2023-01-27T16:34:58.959Z,98234.25
2023-01-27T16:37:00.253Z,98230.84
2023-01-27T16:39:02.185Z,98233.34
2023-01-27T16:41:03.681Z,98235.00
2023-01-27T16:43:06.171Z,98231.53
2023-01-27T16:45:09.605Z,98230.56
2023-01-27T16:47:16.730Z,98233.88
2023-01-27T16:49:18.681Z,98243.94
2023-01-27T16:51:20.037Z,98239.63
2023-01-27T16:53:21.410Z,98238.66
2023-01-27T16:55:22.718Z,98233.38
2023-01-27T16:57:24.121Z,98235.03
2023-01-27T16:59:26.747Z,98236.72
2023-01-27T17:01:28.174Z,98233.06
2023-01-27T17:03:29.556Z,98236.69
2023-01-27T17:05:30.997Z,98246.22
2023-01-27T17:07:32.523Z,98245.09
2023-01-27T17:09:35.430Z,98247.31
2023-01-27T17:11:36.813Z,98252.22
2023-01-27T17:13:41.244Z,98245.41
2023-01-27T17:15:43.437Z,98243.13
2023-01-27T17:17:47.828Z,98242.44
2023-01-27T17:19:49.169Z,98245.09
2023-01-27T17:21:50.463Z,98247.22
2023-01-27T17:23:51.807Z,98246.66
2023-01-27T17:25:55.998Z,98243.97
2023-01-27T17:27:57.381Z,98251.91
2023-01-27T17:29:58.718Z,98248.38
2023-01-27T17:32:00.112Z,98254.41
2023-01-27T17:34:02.250Z,98253.81
2023-01-27T17:36:03.574Z,98253.53
2023-01-27T17:38:10.695Z,98253.75
2023-01-27T17:40:12.023Z,98246.66
2023-01-27T17:42:13.363Z,98254.59
2023-01-27T17:44:14.740Z,98262.22
2023-01-27T17:46:16.398Z,98264.31
2023-01-27T17:48:17.934Z,98266.13
2023-01-27T17:50:19.229Z,98266.75
2023-01-27T17:52:21.073Z,98269.50
2023-01-27T17:54:22.423Z,98267.59
2023-01-27T17:56:23.783Z,98275.53
2023-01-27T17:58:25.127Z,98273.38
2023-01-27T18:00:29.471Z,98277.84
2023-01-27T18:02:30.873Z,98271.38
2023-01-27T18:04:32.231Z,98276.81
2023-01-27T18:06:33.572Z,98281.13
2023-01-27T18:08:35.180Z,98278.75
2023-01-27T18:10:39.440Z,98283.22
2023-01-27T18:12:40.762Z,98289.72
2023-01-27T18:14:42.093Z,98279.59
2023-01-27T18:16:43.393Z,98286.78
2023-01-27T18:18:44.774Z,98127.69
2023-01-27T18:20:46.118Z,98281.50
2023-01-27T18:22:47.734Z,98279.53
2023-01-27T18:24:49.136Z,98281.97
2023-01-27T18:26:50.578Z,98290.38
2023-01-27T18:28:51.995Z,98292.88
2023-01-27T18:30:53.365Z,98300.78
2023-01-27T18:32:54.726Z,98302.69
2023-01-27T18:34:56.127Z,98296.16
2023-01-27T18:36:57.672Z,98302.78
2023-01-27T18:38:58.999Z,98310.03
2023-01-27T18:41:00.379Z,98316.16
2023-01-27T18:43:02.205Z,98307.41
2023-01-27T18:45:09.594Z,98308.88
2023-01-27T18:47:10.926Z,98314.84
2023-01-27T18:49:12.262Z,98315.50
2023-01-27T18:51:13.688Z,98315.38
2023-01-27T18:53:14.996Z,98318.25
2023-01-27T18:55:19.624Z,98317.44
2023-01-27T18:57:20.926Z,98318.75
2023-01-27T18:59:22.254Z,98321.72
2023-01-27T19:01:24.021Z,98328.00
2023-01-27T19:03:25.346Z,98324.06
2023-01-27T19:05:26.689Z,98322.28
2023-01-27T19:07:28.044Z,98331.19
2023-01-27T19:09:29.373Z,98336.94
2023-01-27T19:11:32.876Z,98328.84
2023-01-27T19:13:35.003Z,98330.97
2023-01-27T19:15:39.703Z,98337.63
2023-01-27T19:17:41.051Z,98337.63
2023-01-27T19:19:45.265Z,98337.75
2023-01-27T19:21:46.620Z,98340.31
2023-01-27T19:23:49.526Z,98341.97
2023-01-27T19:25:50.925Z,98348.19
2023-01-27T19:27:52.509Z,98346.19
2023-01-27T19:30:00.139Z,98343.91
2023-01-27T19:32:03.715Z,98346.56
2023-01-27T19:34:08.002Z,98353.66
2023-01-27T19:36:12.176Z,98357.84
2023-01-27T19:38:13.501Z,98355.09
2023-01-27T19:40:14.817Z,98356.38
2023-01-27T19:42:16.288Z,98360.03
2023-01-27T19:44:20.597Z,98367.72
2023-01-27T19:46:21.967Z,98367.75
2023-01-27T19:48:23.282Z,98369.44
2023-01-27T19:50:24.610Z,98369.38
2023-01-27T19:52:29.258Z,98369.28
2023-01-27T19:54:30.564Z,98367.63
2023-01-27T19:56:32.533Z,98372.06
2023-01-27T19:58:33.861Z,98367.09
2023-01-27T20:00:35.181Z,98361.00
2023-01-27T20:02:36.478Z,98360.03
2023-01-27T20:04:38.798Z,98365.34
2023-01-27T20:06:40.109Z,98366.44
2023-01-27T20:08:41.405Z,98372.44
2023-01-27T20:10:42.713Z,98371.84
2023-01-27T20:12:44.363Z,98373.72
2023-01-27T20:14:46.335Z,98375.41
2023-01-27T20:16:47.734Z,98378.84
2023-01-27T20:18:52.030Z,98371.94
2023-01-27T20:20:53.349Z,98365.13
2023-01-27T20:22:54.699Z,98374.41
2023-01-27T20:24:56.069Z,98370.94
2023-01-27T20:26:58.556Z,98367.50
2023-01-27T20:28:59.876Z,98378.59
2023-01-27T20:31:01.312Z,98365.75
2023-01-27T20:33:02.948Z,98357.09
2023-01-27T20:35:04.241Z,98361.22
2023-01-27T20:37:05.541Z,98356.66
2023-01-27T20:39:06.846Z,98354.09
2023-01-27T20:41:08.177Z,98351.97
2023-01-27T20:43:09.508Z,98358.41
2023-01-27T20:45:10.844Z,98351.50
2023-01-27T20:47:13.360Z,98360.75
2023-01-27T20:49:14.697Z,98348.75
2023-01-27T20:51:16.002Z,98346.25
2023-01-27T20:53:22.975Z,98371.91
2023-01-27T20:55:24.302Z,98354.78
2023-01-27T20:57:27.327Z,98359.91
2023-01-27T20:59:28.700Z,98357.16
2023-01-27T21:01:30.073Z,98352.94
2023-01-27T21:03:31.374Z,98362.09
2023-01-27T21:05:34.355Z,98354.97
2023-01-27T21:07:35.706Z,98359.25
2023-01-27T21:09:37.005Z,98357.72
2023-01-27T21:11:38.340Z,98360.44
2023-01-27T21:13:39.667Z,98365.69
2023-01-27T21:15:41.008Z,98362.28
2023-01-27T21:17:42.344Z,98364.84
2023-01-27T21:19:43.765Z,98366.53
2023-01-27T21:21:46.549Z,98363.94
2023-01-27T21:23:47.856Z,98371.53
2023-01-27T21:25:49.165Z,98375.69
2023-01-27T21:27:50.460Z,98383.47
2023-01-27T21:29:52.957Z,98372.88
2023-01-27T21:31:54.372Z,98360.69
2023-01-27T21:33:55.715Z,98364.00
2023-01-27T21:35:57.062Z,98370.75
2023-01-27T21:37:58.436Z,98357.00
2023-01-27T21:39:59.771Z,98363.06
2023-01-27T21:42:01.116Z,98369.06
2023-01-27T21:44:21.019Z,98363.09
2023-01-27T21:46:22.356Z,98363.75
2023-01-27T21:48:23.687Z,98368.88
2023-01-27T21:50:25.046Z,98370.69
2023-01-27T21:52:26.654Z,98363.88
2023-01-27T21:54:27.953Z,98367.81
2023-01-27T21:56:35.078Z,98366.38
2023-01-27T21:58:36.378Z,98369.03
2023-01-27T22:00:37.819Z,98367.31
2023-01-27T22:02:39.280Z,98373.59
2023-01-27T22:04:40.627Z,98378.66
2023-01-27T22:06:41.963Z,98374.31
2023-01-27T22:08:43.261Z,98364.00
2023-01-27T22:10:44.636Z,98364.59
2023-01-27T22:12:45.999Z,98364.78
2023-01-27T22:14:47.311Z,98365.75
2023-01-27T22:16:48.664Z,98369.09
2023-01-27T22:18:49.958Z,98365.66
2023-01-27T22:20:51.286Z,98365.81
2023-01-27T22:22:52.658Z,98370.81
2023-01-27T22:24:53.978Z,98373.66
2023-01-27T22:26:55.278Z,98368.19
2023-01-27T22:28:56.611Z,98370.31
2023-01-27T22:30:57.924Z,98377.00
2023-01-27T22:33:01.578Z,98376.56
2023-01-27T22:35:02.925Z,98375.84
2023-01-27T22:37:04.235Z,98378.97
2023-01-27T22:39:05.573Z,98376.72
2023-01-27T22:41:06.866Z,98374.88
2023-01-27T22:43:10.375Z,98377.41
2023-01-27T22:45:11.736Z,98367.75
2023-01-27T22:47:13.154Z,98371.25
2023-01-27T22:49:14.451Z,98371.06
2023-01-27T22:51:15.739Z,98369.78
2023-01-27T22:53:17.080Z,98370.41
2023-01-27T22:55:20.265Z,98373.06
2023-01-27T22:57:21.865Z,98369.72
2023-01-27T22:59:23.209Z,98371.47
2023-01-27T23:01:24.580Z,98372.22
2023-01-27T23:03:25.928Z,98370.47
2023-01-27T23:05:27.227Z,98366.31
2023-01-27T23:07:28.524Z,98365.28
2023-01-27T23:09:29.835Z,98371.31
2023-01-27T23:11:31.196Z,98367.84
2023-01-27T23:13:32.491Z,98362.72
2023-01-27T23:15:33.800Z,98371.22
2023-01-27T23:17:35.143Z,98366.97
2023-01-27T23:19:36.461Z,98356.38
2023-01-27T23:21:37.738Z,98366.00
2023-01-27T23:23:39.125Z,98366.47
2023-01-27T23:25:40.462Z,98373.28
2023-01-27T23:27:41.786Z,98360.91
2023-01-27T23:29:43.118Z,98365.97
2023-01-27T23:31:44.519Z,98361.28
2023-01-27T23:33:47.962Z,98361.38
2023-01-27T23:35:49.350Z,98360.56
2023-01-27T23:37:50.662Z,98362.28
2023-01-27T23:39:52.270Z,98364.97
2023-01-27T23:41:53.569Z,98359.78
2023-01-27T23:43:57.981Z,98357.91
2023-01-27T23:45:59.347Z,98361.44
2023-01-27T23:48:00.678Z,98358.94
2023-01-27T23:50:02.284Z,98363.13
2023-01-27T23:52:03.574Z,98359.59
2023-01-27T23:54:04.863Z,98353.47